Palmers Crossing, Mississippi
Current Conditions -  °F | °C
As of 9:53 AM on Friday 31 Oct 2014 (Local Time) from KHBG Reporting Station
Clear Clear  
Wind Chill: 64°   Ceiling: Unl
Heat Index: 64°   Visibility: 10mi
Dew Point: 48°   Wind: 13mph
Humidity: 56%   Direction: 320°NW
Pressure: 30.04"   Gusts: NA
Location:  31.1996°N, 89.2694°W
Report Text: KHBG 311453Z AUTO 32011KT 10SM CLR 18/09 A3004 RMK AO2 SLP172 T01780089 51003
Loading
Personal Weather Stations






























Interactive Weather Map
Tropical Storm Tracking
New forecast layout! Learn more

10-Day Weather Forecast

Advertisements
Track Severe Weather on mobile